Ocean Celebrity — HOSZ — position and weather

sailwx.info

Track history (hours):
 
Tides and Currents Weather Stations Pressure Air Temp Water Temp Dewpoint Dewpoint Depression Visibility Wind Speed Wind Dir Waves Ship Positions

Ocean Celebrity

Last reported at 2015-Apr-19 16:33 UTC. Time now 2015-May-06 00:22 UTC.
Position N 21°46' E 121°54'.
Warning: this ship's position is 16 days out of date.

Length 289 m; draft 7.8 m.

Type: Cargo ship. MMSI: 356712000.

Date/timePositionNaut miles runAvg speedWind from/ knotsBaromVisibWave heightAir tempDewpointWater temp
2015-Apr-19 16:33N 21°46' E 121°54'1211.5
2015-Apr-19 15:33N 21°57' E 121°59'2311.3
2015-Apr-19 13:31N 22°19' E 122°06'2110.1
2015-Apr-19 11:28N 22°39' E 122°10'910.3
2015-Apr-19 10:32N 22°49' E 122°12'1210.8
2015-Apr-19 09:28N 23°00' E 122°15'39210.8
2015-Apr-17 21:04N 29°30' E 123°04'1912.2
2015-Apr-17 19:31N 29°49' E 123°04'3210.5
2015-Apr-17 16:25N 30°20' E 122°53'1112.4
2015-Apr-17 15:31N 30°21' E 122°40'1111.0
2015-Apr-17 14:33N 30°22' E 122°28'9 8.7
2015-Apr-17 13:29N 30°22' E 122°17'9 8.0
2015-Apr-17 12:24N 30°22' E 122°07'8 8.8
2015-Apr-17 11:33N 30°23' E 121°59'10 9.4
2015-Apr-17 10:27N 30°22' E 121°47'14 2.4
2015-Apr-17 04:31N 30°14' E 122°00'0 0.0
2015-Apr-16 20:13N 30°14' E 122°01'0 0.0
2015-Apr-16 19:25N 30°14' E 122°01'0 0.0
2015-Apr-16 18:31N 30°14' E 122°01'0 0.0
2015-Apr-16 17:31N 30°14' E 122°01'0 0.0
2015-Apr-16 16:25N 30°14' E 122°01'0 0.1
2015-Apr-16 15:31N 30°14' E 122°00'0 0.2
2015-Apr-16 14:31N 30°14' E 122°00'0 0.1
2015-Apr-16 13:31N 30°14' E 122°00'0 0.0
2015-Apr-16 12:28N 30°14' E 122°00'0 0.0
2015-Apr-16 11:19N 30°14' E 122°00'0 0.1
2015-Apr-16 10:31N 30°14' E 122°00'4 0.9
2015-Apr-16 06:21N 30°12' E 122°04'0 0.0
2015-Apr-15 09:31N 30°12' E 122°04'  
2015-Apr-11 15:20N 30°11' E 122°04'0 0.1
2015-Apr-11 14:33N 30°12' E 122°04'1 0.7
2015-Apr-11 13:34N 30°11' E 122°04'1 0.8
2015-Apr-11 12:32N 30°12' E 122°04'0 0.1
2015-Apr-11 11:16N 30°12' E 122°04'0 0.0
2015-Apr-11 10:31N 30°12' E 122°04'0 0.0
2015-Apr-11 09:16N 30°12' E 122°04'0 0.0
2015-Apr-11 08:16N 30°12' E 122°04'0 0.0
2015-Apr-11 07:28N 30°12' E 122°04'0 0.0
2015-Apr-11 04:07N 30°12' E 122°04'0 0.0
2015-Apr-11 00:28N 30°12' E 122°04'0 0.0
2015-Apr-10 23:13N 30°12' E 122°04'0 0.0
2015-Apr-10 22:22N 30°12' E 122°04'0 0.0
2015-Apr-10 21:25N 30°12' E 122°04'0 0.0
2015-Apr-10 20:19N 30°12' E 122°04'0 0.0
2015-Apr-10 19:25N 30°12' E 122°04'0 0.0
2015-Apr-10 18:07N 30°12' E 122°04'0 0.0
2015-Apr-10 16:31N 30°12' E 122°04'0 0.0
2015-Apr-10 15:25N 30°12' E 122°04'0 0.0
2015-Apr-10 14:32N 30°12' E 122°04'0 0.0
2015-Apr-10 13:25N 30°12' E 122°04'0 0.0
2015-Apr-09 17:25N 30°12' E 122°04'  
Track history (hours):
 
Tides and Currents Weather Stations Pressure Air Temp Water Temp Dewpoint Dewpoint Depression Visibility Wind Speed Wind Dir Waves Ship Positions

Ocean Celebrity

Last reported at 2015-Apr-19 16:33 UTC. Time now 2015-May-06 00:22 UTC.
Position N 21°46' E 121°54'.
Warning: this ship's position is 16 days out of date.

Length 289 m; draft 7.8 m.

Type: Cargo ship. MMSI: 356712000.

Date/timePositionNaut miles runAvg speedWind from/ knotsBaromVisibWave heightAir tempDewpointWater temp
2015-Apr-19 16:33N 21°46' E 121°54'1211.5
2015-Apr-19 15:33N 21°57' E 121°59'2311.3
2015-Apr-19 13:31N 22°19' E 122°06'2110.1
2015-Apr-19 11:28N 22°39' E 122°10'910.3
2015-Apr-19 10:32N 22°49' E 122°12'1210.8
2015-Apr-19 09:28N 23°00' E 122°15'39210.8
2015-Apr-17 21:04N 29°30' E 123°04'1912.2
2015-Apr-17 19:31N 29°49' E 123°04'3210.5
2015-Apr-17 16:25N 30°20' E 122°53'1112.4
2015-Apr-17 15:31N 30°21' E 122°40'1111.0
2015-Apr-17 14:33N 30°22' E 122°28'9 8.7
2015-Apr-17 13:29N 30°22' E 122°17'9 8.0
2015-Apr-17 12:24N 30°22' E 122°07'8 8.8
2015-Apr-17 11:33N 30°23' E 121°59'10 9.4
2015-Apr-17 10:27N 30°22' E 121°47'14 2.4
2015-Apr-17 04:31N 30°14' E 122°00'0 0.0
2015-Apr-16 20:13N 30°14' E 122°01'0 0.0
2015-Apr-16 19:25N 30°14' E 122°01'0 0.0
2015-Apr-16 18:31N 30°14' E 122°01'0 0.0
2015-Apr-16 17:31N 30°14' E 122°01'0 0.0
2015-Apr-16 16:25N 30°14' E 122°01'0 0.1
2015-Apr-16 15:31N 30°14' E 122°00'0 0.2
2015-Apr-16 14:31N 30°14' E 122°00'0 0.1
2015-Apr-16 13:31N 30°14' E 122°00'0 0.0
2015-Apr-16 12:28N 30°14' E 122°00'0 0.0
2015-Apr-16 11:19N 30°14' E 122°00'0 0.1
2015-Apr-16 10:31N 30°14' E 122°00'4 0.9
2015-Apr-16 06:21N 30°12' E 122°04'0 0.0
2015-Apr-15 09:31N 30°12' E 122°04'  
2015-Apr-11 15:20N 30°11' E 122°04'0 0.1
2015-Apr-11 14:33N 30°12' E 122°04'1 0.7
2015-Apr-11 13:34N 30°11' E 122°04'1 0.8
2015-Apr-11 12:32N 30°12' E 122°04'0 0.1
2015-Apr-11 11:16N 30°12' E 122°04'0 0.0
2015-Apr-11 10:31N 30°12' E 122°04'0 0.0
2015-Apr-11 09:16N 30°12' E 122°04'0 0.0
2015-Apr-11 08:16N 30°12' E 122°04'0 0.0
2015-Apr-11 07:28N 30°12' E 122°04'0 0.0
2015-Apr-11 04:07N 30°12' E 122°04'0 0.0
2015-Apr-11 00:28N 30°12' E 122°04'0 0.0
2015-Apr-10 23:13N 30°12' E 122°04'0 0.0
2015-Apr-10 22:22N 30°12' E 122°04'0 0.0
2015-Apr-10 21:25N 30°12' E 122°04'0 0.0
2015-Apr-10 20:19N 30°12' E 122°04'0 0.0
2015-Apr-10 19:25N 30°12' E 122°04'0 0.0
2015-Apr-10 18:07N 30°12' E 122°04'0 0.0
2015-Apr-10 16:31N 30°12' E 122°04'0 0.0
2015-Apr-10 15:25N 30°12' E 122°04'0 0.0
2015-Apr-10 14:32N 30°12' E 122°04'0 0.0
2015-Apr-10 13:25N 30°12' E 122°04'0 0.0
2015-Apr-09 17:25N 30°12' E 122°04'  

Dump ship's entire track history